sensor_id;sensor_type;location;lat;lon;timestamp;P1;durP1;ratioP1;P2;durP2;ratioP2
37485;SDS011;23341;50.296;18.960;2024-02-28T00:01:37;117.57;;;70.13;;
37485;SDS011;23341;50.296;18.960;2024-02-28T00:04:04;114.82;;;72.50;;
37485;SDS011;23341;50.296;18.960;2024-02-28T00:06:32;112.10;;;68.82;;
37485;SDS011;23341;50.296;18.960;2024-02-28T00:08:59;112.20;;;70.25;;
37485;SDS011;23341;50.296;18.960;2024-02-28T00:11:28;114.03;;;68.95;;
37485;SDS011;23341;50.296;18.960;2024-02-28T00:13:56;112.72;;;68.90;;
37485;SDS011;23341;50.296;18.960;2024-02-28T00:16:25;130.25;;;77.70;;
37485;SDS011;23341;50.296;18.960;2024-02-28T00:18:53;128.35;;;73.35;;
37485;SDS011;23341;50.296;18.960;2024-02-28T00:21:20;110.55;;;67.30;;
37485;SDS011;23341;50.296;18.960;2024-02-28T00:23:48;115.38;;;68.45;;
37485;SDS011;23341;50.296;18.960;2024-02-28T00:26:15;109.65;;;70.07;;
37485;SDS011;23341;50.296;18.960;2024-02-28T00:28:44;111.45;;;70.45;;
37485;SDS011;23341;50.296;18.960;2024-02-28T00:31:12;105.73;;;67.93;;
37485;SDS011;23341;50.296;18.960;2024-02-28T00:33:39;111.93;;;67.13;;
37485;SDS011;23341;50.296;18.960;2024-02-28T00:36:07;114.93;;;68.60;;
37485;SDS011;23341;50.296;18.960;2024-02-28T00:38:34;121.32;;;69.78;;
37485;SDS011;23341;50.296;18.960;2024-02-28T00:41:02;115.57;;;72.38;;
37485;SDS011;23341;50.296;18.960;2024-02-28T00:43:29;109.75;;;65.18;;
37485;SDS011;23341;50.296;18.960;2024-02-28T00:45:58;118.78;;;65.57;;
37485;SDS011;23341;50.296;18.960;2024-02-28T00:48:25;103.03;;;63.35;;
37485;SDS011;23341;50.296;18.960;2024-02-28T00:50:53;108.15;;;63.90;;
37485;SDS011;23341;50.296;18.960;2024-02-28T00:53:21;108.95;;;63.80;;
37485;SDS011;23341;50.296;18.960;2024-02-28T00:55:48;107.22;;;64.85;;
37485;SDS011;23341;50.296;18.960;2024-02-28T00:58:17;116.05;;;66.85;;
37485;SDS011;23341;50.296;18.960;2024-02-28T01:00:44;113.63;;;65.97;;
37485;SDS011;23341;50.296;18.960;2024-02-28T01:03:13;104.43;;;62.58;;
37485;SDS011;23341;50.296;18.960;2024-02-28T01:05:41;107.82;;;63.28;;
37485;SDS011;23341;50.296;18.960;2024-02-28T01:08:09;108.10;;;64.28;;
37485;SDS011;23341;50.296;18.960;2024-02-28T01:10:36;104.85;;;64.80;;
37485;SDS011;23341;50.296;18.960;2024-02-28T01:13:03;107.88;;;62.65;;
37485;SDS011;23341;50.296;18.960;2024-02-28T01:15:31;111.43;;;68.32;;
37485;SDS011;23341;50.296;18.960;2024-02-28T01:17:58;110.22;;;66.18;;
37485;SDS011;23341;50.296;18.960;2024-02-28T01:20:27;108.50;;;64.85;;
37485;SDS011;23341;50.296;18.960;2024-02-28T01:22:55;107.05;;;68.47;;
37485;SDS011;23341;50.296;18.960;2024-02-28T01:25:21;109.22;;;65.28;;
37485;SDS011;23341;50.296;18.960;2024-02-28T01:27:49;106.18;;;65.85;;
37485;SDS011;23341;50.296;18.960;2024-02-28T01:30:16;115.60;;;72.05;;
37485;SDS011;23341;50.296;18.960;2024-02-28T01:32:44;103.97;;;65.82;;
37485;SDS011;23341;50.296;18.960;2024-02-28T01:35:12;109.82;;;68.28;;
37485;SDS011;23341;50.296;18.960;2024-02-28T01:37:40;107.47;;;68.30;;
37485;SDS011;23341;50.296;18.960;2024-02-28T01:40:08;113.87;;;70.47;;
37485;SDS011;23341;50.296;18.960;2024-02-28T01:42:37;114.25;;;70.75;;
37485;SDS011;23341;50.296;18.960;2024-02-28T01:45:05;113.55;;;70.60;;
37485;SDS011;23341;50.296;18.960;2024-02-28T01:50:01;114.20;;;68.50;;
37485;SDS011;23341;50.296;18.960;2024-02-28T01:52:29;110.00;;;66.13;;
37485;SDS011;23341;50.296;18.960;2024-02-28T01:54:58;100.10;;;64.28;;
37485;SDS011;23341;50.296;18.960;2024-02-28T01:57:26;110.93;;;67.63;;
37485;SDS011;23341;50.296;18.960;2024-02-28T01:59:54;106.97;;;67.28;;
37485;SDS011;23341;50.296;18.960;2024-02-28T02:02:21;109.05;;;66.55;;
37485;SDS011;23341;50.296;18.960;2024-02-28T02:04:49;110.63;;;68.80;;
37485;SDS011;23341;50.296;18.960;2024-02-28T02:07:18;109.30;;;65.10;;
37485;SDS011;23341;50.296;18.960;2024-02-28T02:09:46;104.50;;;65.78;;
37485;SDS011;23341;50.296;18.960;2024-02-28T02:12:15;101.55;;;65.03;;
37485;SDS011;23341;50.296;18.960;2024-02-28T02:14:46;95.83;;;63.23;;
37485;SDS011;23341;50.296;18.960;2024-02-28T02:17:14;102.32;;;63.35;;
37485;SDS011;23341;50.296;18.960;2024-02-28T02:19:42;102.35;;;61.53;;
37485;SDS011;23341;50.296;18.960;2024-02-28T02:22:09;98.95;;;62.53;;
37485;SDS011;23341;50.296;18.960;2024-02-28T02:24:41;90.88;;;58.10;;
37485;SDS011;23341;50.296;18.960;2024-02-28T02:27:09;93.70;;;62.60;;
37485;SDS011;23341;50.296;18.960;2024-02-28T02:29:36;91.93;;;61.72;;
37485;SDS011;23341;50.296;18.960;2024-02-28T02:32:04;96.38;;;62.15;;
37485;SDS011;23341;50.296;18.960;2024-02-28T02:34:32;83.72;;;52.53;;
37485;SDS011;23341;50.296;18.960;2024-02-28T02:36:59;86.05;;;55.17;;
37485;SDS011;23341;50.296;18.960;2024-02-28T02:39:27;85.55;;;53.17;;
37485;SDS011;23341;50.296;18.960;2024-02-28T02:41:55;82.70;;;53.28;;
37485;SDS011;23341;50.296;18.960;2024-02-28T02:44:23;78.83;;;50.10;;
37485;SDS011;23341;50.296;18.960;2024-02-28T02:46:51;79.13;;;49.70;;
37485;SDS011;23341;50.296;18.960;2024-02-28T02:49:18;79.05;;;49.72;;
37485;SDS011;23341;50.296;18.960;2024-02-28T02:51:46;80.15;;;50.85;;
37485;SDS011;23341;50.296;18.960;2024-02-28T02:54:14;78.30;;;48.85;;
37485;SDS011;23341;50.296;18.960;2024-02-28T02:56:41;71.72;;;47.60;;
37485;SDS011;23341;50.296;18.960;2024-02-28T02:59:11;74.88;;;45.90;;
37485;SDS011;23341;50.296;18.960;2024-02-28T03:01:38;75.25;;;44.90;;
37485;SDS011;23341;50.296;18.960;2024-02-28T03:04:06;72.78;;;44.83;;
37485;SDS011;23341;50.296;18.960;2024-02-28T03:06:33;72.00;;;45.38;;
37485;SDS011;23341;50.296;18.960;2024-02-28T03:09:01;71.60;;;45.97;;
37485;SDS011;23341;50.296;18.960;2024-02-28T03:11:29;72.07;;;45.80;;
37485;SDS011;23341;50.296;18.960;2024-02-28T03:13:56;78.38;;;47.78;;
37485;SDS011;23341;50.296;18.960;2024-02-28T03:16:25;74.72;;;47.45;;
37485;SDS011;23341;50.296;18.960;2024-02-28T03:18:53;76.78;;;47.20;;
37485;SDS011;23341;50.296;18.960;2024-02-28T03:21:21;75.75;;;48.22;;
37485;SDS011;23341;50.296;18.960;2024-02-28T03:23:48;74.03;;;46.03;;
37485;SDS011;23341;50.296;18.960;2024-02-28T03:26:16;75.90;;;46.38;;
37485;SDS011;23341;50.296;18.960;2024-02-28T03:28:43;74.55;;;47.10;;
37485;SDS011;23341;50.296;18.960;2024-02-28T03:31:11;86.05;;;50.83;;
37485;SDS011;23341;50.296;18.960;2024-02-28T03:33:40;84.82;;;51.35;;
37485;SDS011;23341;50.296;18.960;2024-02-28T03:36:07;83.88;;;52.40;;
37485;SDS011;23341;50.296;18.960;2024-02-28T03:38:35;86.05;;;51.08;;
37485;SDS011;23341;50.296;18.960;2024-02-28T03:41:02;87.88;;;52.00;;
37485;SDS011;23341;50.296;18.960;2024-02-28T03:43:30;80.45;;;49.55;;
37485;SDS011;23341;50.296;18.960;2024-02-28T03:45:58;82.32;;;48.70;;
37485;SDS011;23341;50.296;18.960;2024-02-28T03:48:25;76.32;;;47.30;;
37485;SDS011;23341;50.296;18.960;2024-02-28T03:50:54;79.50;;;48.65;;
37485;SDS011;23341;50.296;18.960;2024-02-28T03:53:22;75.80;;;45.65;;
37485;SDS011;23341;50.296;18.960;2024-02-28T03:55:50;73.00;;;45.85;;
37485;SDS011;23341;50.296;18.960;2024-02-28T03:58:17;78.22;;;45.53;;
37485;SDS011;23341;50.296;18.960;2024-02-28T04:00:44;77.72;;;46.83;;
37485;SDS011;23341;50.296;18.960;2024-02-28T04:03:12;84.22;;;48.75;;
37485;SDS011;23341;50.296;18.960;2024-02-28T04:05:40;72.93;;;46.47;;
37485;SDS011;23341;50.296;18.960;2024-02-28T04:08:09;79.03;;;45.85;;
37485;SDS011;23341;50.296;18.960;2024-02-28T04:10:37;80.10;;;43.85;;
37485;SDS011;23341;50.296;18.960;2024-02-28T04:13:04;74.25;;;44.30;;
37485;SDS011;23341;50.296;18.960;2024-02-28T04:15:32;72.25;;;45.65;;
37485;SDS011;23341;50.296;18.960;2024-02-28T04:17:59;76.88;;;46.22;;
37485;SDS011;23341;50.296;18.960;2024-02-28T04:20:27;77.57;;;47.58;;
37485;SDS011;23341;50.296;18.960;2024-02-28T04:22:54;79.75;;;49.10;;
37485;SDS011;23341;50.296;18.960;2024-02-28T04:25:23;84.03;;;49.17;;
37485;SDS011;23341;50.296;18.960;2024-02-28T04:27:51;81.47;;;48.87;;
37485;SDS011;23341;50.296;18.960;2024-02-28T04:30:18;79.07;;;47.35;;
37485;SDS011;23341;50.296;18.960;2024-02-28T04:32:46;91.00;;;48.65;;
37485;SDS011;23341;50.296;18.960;2024-02-28T04:35:13;78.35;;;47.15;;
37485;SDS011;23341;50.296;18.960;2024-02-28T04:37:44;76.20;;;45.53;;
37485;SDS011;23341;50.296;18.960;2024-02-28T04:40:12;75.32;;;45.85;;
37485;SDS011;23341;50.296;18.960;2024-02-28T04:42:42;86.55;;;49.38;;
37485;SDS011;23341;50.296;18.960;2024-02-28T04:45:10;80.57;;;46.40;;
37485;SDS011;23341;50.296;18.960;2024-02-28T04:47:38;77.55;;;45.35;;
37485;SDS011;23341;50.296;18.960;2024-02-28T04:50:05;72.82;;;44.22;;
37485;SDS011;23341;50.296;18.960;2024-02-28T04:52:34;76.07;;;44.85;;
37485;SDS011;23341;50.296;18.960;2024-02-28T04:55:01;76.45;;;46.25;;
37485;SDS011;23341;50.296;18.960;2024-02-28T04:57:29;78.63;;;43.60;;
37485;SDS011;23341;50.296;18.960;2024-02-28T04:59:58;74.95;;;44.50;;
37485;SDS011;23341;50.296;18.960;2024-02-28T05:02:26;71.37;;;43.10;;
37485;SDS011;23341;50.296;18.960;2024-02-28T05:04:53;70.70;;;42.13;;
37485;SDS011;23341;50.296;18.960;2024-02-28T05:07:21;70.75;;;43.15;;
37485;SDS011;23341;50.296;18.960;2024-02-28T05:09:49;70.43;;;41.60;;
37485;SDS011;23341;50.296;18.960;2024-02-28T05:12:16;78.68;;;42.70;;
37485;SDS011;23341;50.296;18.960;2024-02-28T05:14:44;70.03;;;40.58;;
37485;SDS011;23341;50.296;18.960;2024-02-28T05:17:13;67.18;;;41.08;;
37485;SDS011;23341;50.296;18.960;2024-02-28T05:19:40;70.10;;;42.38;;
37485;SDS011;23341;50.296;18.960;2024-02-28T05:22:08;70.30;;;45.80;;
37485;SDS011;23341;50.296;18.960;2024-02-28T05:24:36;68.88;;;44.83;;
37485;SDS011;23341;50.296;18.960;2024-02-28T05:27:04;69.85;;;41.10;;
37485;SDS011;23341;50.296;18.960;2024-02-28T05:29:31;69.15;;;40.50;;
37485;SDS011;23341;50.296;18.960;2024-02-28T05:31:59;68.68;;;41.75;;
37485;SDS011;23341;50.296;18.960;2024-02-28T05:34:28;67.30;;;41.47;;
37485;SDS011;23341;50.296;18.960;2024-02-28T05:36:56;74.07;;;42.30;;
37485;SDS011;23341;50.296;18.960;2024-02-28T05:39:25;64.63;;;42.15;;
37485;SDS011;23341;50.296;18.960;2024-02-28T05:41:53;60.80;;;39.70;;
37485;SDS011;23341;50.296;18.960;2024-02-28T05:44:21;74.00;;;46.50;;
37485;SDS011;23341;50.296;18.960;2024-02-28T05:46:50;79.55;;;47.63;;
37485;SDS011;23341;50.296;18.960;2024-02-28T05:49:17;73.68;;;46.17;;
37485;SDS011;23341;50.296;18.960;2024-02-28T05:51:46;79.45;;;48.20;;
37485;SDS011;23341;50.296;18.960;2024-02-28T05:54:13;88.82;;;50.83;;
37485;SDS011;23341;50.296;18.960;2024-02-28T05:56:41;73.97;;;43.88;;
37485;SDS011;23341;50.296;18.960;2024-02-28T05:59:08;64.15;;;41.20;;
37485;SDS011;23341;50.296;18.960;2024-02-28T06:01:36;66.78;;;44.10;;
37485;SDS011;23341;50.296;18.960;2024-02-28T06:04:05;74.78;;;42.90;;
37485;SDS011;23341;50.296;18.960;2024-02-28T06:06:33;67.50;;;43.58;;
37485;SDS011;23341;50.296;18.960;2024-02-28T06:09:02;69.63;;;42.58;;
37485;SDS011;23341;50.296;18.960;2024-02-28T06:11:31;84.72;;;53.20;;
37485;SDS011;23341;50.296;18.960;2024-02-28T06:13:59;66.75;;;44.95;;
37485;SDS011;23341;50.296;18.960;2024-02-28T06:16:28;70.40;;;43.50;;
37485;SDS011;23341;50.296;18.960;2024-02-28T06:18:55;67.65;;;42.92;;
37485;SDS011;23341;50.296;18.960;2024-02-28T06:21:23;70.78;;;44.63;;
37485;SDS011;23341;50.296;18.960;2024-02-28T06:23:50;74.07;;;44.25;;
37485;SDS011;23341;50.296;18.960;2024-02-28T06:26:19;67.30;;;41.08;;
37485;SDS011;23341;50.296;18.960;2024-02-28T06:28:47;66.60;;;42.13;;
37485;SDS011;23341;50.296;18.960;2024-02-28T06:31:16;64.57;;;44.88;;
37485;SDS011;23341;50.296;18.960;2024-02-28T06:33:45;69.32;;;44.58;;
37485;SDS011;23341;50.296;18.960;2024-02-28T06:36:12;64.65;;;45.13;;
37485;SDS011;23341;50.296;18.960;2024-02-28T06:38:40;65.30;;;41.53;;
37485;SDS011;23341;50.296;18.960;2024-02-28T06:41:07;66.20;;;41.25;;
37485;SDS011;23341;50.296;18.960;2024-02-28T06:43:36;65.45;;;42.38;;
37485;SDS011;23341;50.296;18.960;2024-02-28T06:46:04;61.95;;;41.03;;
37485;SDS011;23341;50.296;18.960;2024-02-28T06:48:32;57.80;;;41.08;;
37485;SDS011;23341;50.296;18.960;2024-02-28T06:50:59;64.35;;;40.83;;
37485;SDS011;23341;50.296;18.960;2024-02-28T06:53:27;66.65;;;40.28;;
37485;SDS011;23341;50.296;18.960;2024-02-28T06:55:54;65.43;;;39.05;;
37485;SDS011;23341;50.296;18.960;2024-02-28T06:58:21;64.45;;;40.30;;
37485;SDS011;23341;50.296;18.960;2024-02-28T07:00:52;60.85;;;39.35;;
37485;SDS011;23341;50.296;18.960;2024-02-28T07:03:19;67.65;;;40.17;;
37485;SDS011;23341;50.296;18.960;2024-02-28T07:05:47;67.82;;;42.15;;
37485;SDS011;23341;50.296;18.960;2024-02-28T07:08:14;64.82;;;42.10;;
37485;SDS011;23341;50.296;18.960;2024-02-28T07:10:42;76.80;;;45.30;;
37485;SDS011;23341;50.296;18.960;2024-02-28T07:13:13;66.10;;;43.78;;
37485;SDS011;23341;50.296;18.960;2024-02-28T07:15:40;71.60;;;46.15;;
37485;SDS011;23341;50.296;18.960;2024-02-28T07:18:10;84.20;;;50.67;;
37485;SDS011;23341;50.296;18.960;2024-02-28T07:20:38;89.32;;;52.45;;
37485;SDS011;23341;50.296;18.960;2024-02-28T07:23:05;75.30;;;50.97;;
37485;SDS011;23341;50.296;18.960;2024-02-28T07:25:33;83.30;;;52.08;;
37485;SDS011;23341;50.296;18.960;2024-02-28T07:28:00;80.03;;;53.80;;
37485;SDS011;23341;50.296;18.960;2024-02-28T07:30:29;88.45;;;53.40;;
37485;SDS011;23341;50.296;18.960;2024-02-28T07:32:56;87.70;;;56.20;;
37485;SDS011;23341;50.296;18.960;2024-02-28T07:35:24;100.97;;;59.08;;
37485;SDS011;23341;50.296;18.960;2024-02-28T07:37:52;102.77;;;62.20;;
37485;SDS011;23341;50.296;18.960;2024-02-28T07:40:19;95.10;;;60.65;;
37485;SDS011;23341;50.296;18.960;2024-02-28T07:42:47;103.10;;;65.00;;
37485;SDS011;23341;50.296;18.960;2024-02-28T07:45:14;92.22;;;63.00;;
37485;SDS011;23341;50.296;18.960;2024-02-28T07:47:42;101.03;;;64.55;;
37485;SDS011;23341;50.296;18.960;2024-02-28T07:50:08;113.07;;;69.07;;
37485;SDS011;23341;50.296;18.960;2024-02-28T07:52:37;123.65;;;75.60;;
37485;SDS011;23341;50.296;18.960;2024-02-28T07:55:05;110.05;;;69.35;;
37485;SDS011;23341;50.296;18.960;2024-02-28T07:57:33;117.05;;;72.53;;
37485;SDS011;23341;50.296;18.960;2024-02-28T08:00:01;113.07;;;72.35;;
37485;SDS011;23341;50.296;18.960;2024-02-28T08:02:29;112.55;;;68.18;;
37485;SDS011;23341;50.296;18.960;2024-02-28T08:04:56;113.82;;;71.20;;
37485;SDS011;23341;50.296;18.960;2024-02-28T08:07:23;113.25;;;71.00;;
37485;SDS011;23341;50.296;18.960;2024-02-28T08:09:52;118.72;;;77.18;;
37485;SDS011;23341;50.296;18.960;2024-02-28T08:12:20;108.30;;;71.57;;
37485;SDS011;23341;50.296;18.960;2024-02-28T08:14:47;116.38;;;72.68;;
37485;SDS011;23341;50.296;18.960;2024-02-28T08:17:15;116.93;;;73.78;;
37485;SDS011;23341;50.296;18.960;2024-02-28T08:19:42;121.72;;;79.78;;
37485;SDS011;23341;50.296;18.960;2024-02-28T08:22:10;137.50;;;82.25;;
37485;SDS011;23341;50.296;18.960;2024-02-28T08:24:37;143.80;;;92.80;;
37485;SDS011;23341;50.296;18.960;2024-02-28T08:27:07;148.88;;;94.15;;
37485;SDS011;23341;50.296;18.960;2024-02-28T08:29:35;146.23;;;91.80;;
37485;SDS011;23341;50.296;18.960;2024-02-28T08:32:04;155.35;;;94.03;;
37485;SDS011;23341;50.296;18.960;2024-02-28T08:34:31;144.23;;;90.60;;
37485;SDS011;23341;50.296;18.960;2024-02-28T08:36:59;145.43;;;89.22;;
37485;SDS011;23341;50.296;18.960;2024-02-28T08:39:26;152.48;;;95.45;;
37485;SDS011;23341;50.296;18.960;2024-02-28T08:41:54;158.88;;;96.30;;
37485;SDS011;23341;50.296;18.960;2024-02-28T08:44:22;157.88;;;93.03;;
37485;SDS011;23341;50.296;18.960;2024-02-28T08:46:50;153.63;;;97.73;;
37485;SDS011;23341;50.296;18.960;2024-02-28T08:49:17;158.90;;;98.20;;
37485;SDS011;23341;50.296;18.960;2024-02-28T08:51:45;164.40;;;99.78;;
37485;SDS011;23341;50.296;18.960;2024-02-28T08:54:12;161.48;;;101.30;;
37485;SDS011;23341;50.296;18.960;2024-02-28T08:56:40;171.43;;;100.60;;
37485;SDS011;23341;50.296;18.960;2024-02-28T08:59:07;159.07;;;97.13;;
37485;SDS011;23341;50.296;18.960;2024-02-28T09:01:36;156.32;;;96.43;;
37485;SDS011;23341;50.296;18.960;2024-02-28T09:04:03;154.70;;;96.28;;
37485;SDS011;23341;50.296;18.960;2024-02-28T09:06:31;147.85;;;96.13;;
37485;SDS011;23341;50.296;18.960;2024-02-28T09:08:58;160.23;;;102.75;;
37485;SDS011;23341;50.296;18.960;2024-02-28T09:11:26;151.05;;;98.22;;
37485;SDS011;23341;50.296;18.960;2024-02-28T09:13:53;147.65;;;98.10;;
37485;SDS011;23341;50.296;18.960;2024-02-28T09:16:21;157.27;;;95.60;;
37485;SDS011;23341;50.296;18.960;2024-02-28T09:18:50;156.55;;;95.68;;
37485;SDS011;23341;50.296;18.960;2024-02-28T09:21:17;156.87;;;95.23;;
37485;SDS011;23341;50.296;18.960;2024-02-28T09:23:45;146.50;;;96.93;;
37485;SDS011;23341;50.296;18.960;2024-02-28T09:26:13;140.57;;;85.97;;
37485;SDS011;23341;50.296;18.960;2024-02-28T09:28:40;131.18;;;84.28;;
37485;SDS011;23341;50.296;18.960;2024-02-28T09:31:08;141.55;;;85.45;;
37485;SDS011;23341;50.296;18.960;2024-02-28T09:33:36;138.38;;;82.63;;
37485;SDS011;23341;50.296;18.960;2024-02-28T09:36:06;134.93;;;80.32;;
37485;SDS011;23341;50.296;18.960;2024-02-28T09:38:34;158.15;;;88.40;;
37485;SDS011;23341;50.296;18.960;2024-02-28T09:41:01;141.90;;;87.03;;
37485;SDS011;23341;50.296;18.960;2024-02-28T09:43:30;151.77;;;90.68;;
37485;SDS011;23341;50.296;18.960;2024-02-28T09:45:59;154.15;;;88.38;;
37485;SDS011;23341;50.296;18.960;2024-02-28T09:48:30;140.63;;;83.80;;
37485;SDS011;23341;50.296;18.960;2024-02-28T09:50:58;137.05;;;83.90;;
37485;SDS011;23341;50.296;18.960;2024-02-28T09:53:28;131.57;;;80.28;;
37485;SDS011;23341;50.296;18.960;2024-02-28T09:55:56;138.40;;;82.63;;
37485;SDS011;23341;50.296;18.960;2024-02-28T09:58:23;136.88;;;82.32;;
37485;SDS011;23341;50.296;18.960;2024-02-28T10:00:53;139.30;;;80.88;;
37485;SDS011;23341;50.296;18.960;2024-02-28T10:03:24;138.95;;;82.70;;
37485;SDS011;23341;50.296;18.960;2024-02-28T10:05:53;134.75;;;82.65;;
37485;SDS011;23341;50.296;18.960;2024-02-28T10:08:20;141.77;;;83.78;;
37485;SDS011;23341;50.296;18.960;2024-02-28T10:10:50;151.00;;;86.13;;
37485;SDS011;23341;50.296;18.960;2024-02-28T10:13:20;193.10;;;98.90;;
37485;SDS011;23341;50.296;18.960;2024-02-28T10:15:49;178.15;;;89.25;;
37485;SDS011;23341;50.296;18.960;2024-02-28T10:18:16;137.07;;;77.10;;
37485;SDS011;23341;50.296;18.960;2024-02-28T10:20:44;134.25;;;77.15;;
37485;SDS011;23341;50.296;18.960;2024-02-28T10:23:11;127.53;;;75.38;;
37485;SDS011;23341;50.296;18.960;2024-02-28T10:25:42;128.25;;;72.72;;
37485;SDS011;23341;50.296;18.960;2024-02-28T10:28:11;137.50;;;74.82;;
37485;SDS011;23341;50.296;18.960;2024-02-28T10:30:40;132.65;;;77.72;;
37485;SDS011;23341;50.296;18.960;2024-02-28T10:33:11;146.40;;;83.32;;
37485;SDS011;23341;50.296;18.960;2024-02-28T10:35:40;145.73;;;81.85;;
37485;SDS011;23341;50.296;18.960;2024-02-28T10:38:08;154.75;;;86.80;;
37485;SDS011;23341;50.296;18.960;2024-02-28T10:40:37;152.82;;;82.93;;
37485;SDS011;23341;50.296;18.960;2024-02-28T10:43:06;159.38;;;87.05;;
37485;SDS011;23341;50.296;18.960;2024-02-28T10:45:37;141.93;;;80.13;;
37485;SDS011;23341;50.296;18.960;2024-02-28T10:48:05;152.82;;;86.20;;
37485;SDS011;23341;50.296;18.960;2024-02-28T10:50:34;138.07;;;78.50;;
37485;SDS011;23341;50.296;18.960;2024-02-28T10:53:03;141.75;;;78.32;;
37485;SDS011;23341;50.296;18.960;2024-02-28T10:55:32;150.07;;;82.85;;
37485;SDS011;23341;50.296;18.960;2024-02-28T10:58:01;140.38;;;81.93;;
37485;SDS011;23341;50.296;18.960;2024-02-28T11:00:30;159.10;;;87.70;;
37485;SDS011;23341;50.296;18.960;2024-02-28T11:03:01;187.00;;;99.57;;
37485;SDS011;23341;50.296;18.960;2024-02-28T11:05:36;155.07;;;81.85;;
37485;SDS011;23341;50.296;18.960;2024-02-28T11:08:08;182.77;;;94.97;;
37485;SDS011;23341;50.296;18.960;2024-02-28T11:10:40;196.85;;;99.72;;
37485;SDS011;23341;50.296;18.960;2024-02-28T11:13:08;168.73;;;88.88;;
37485;SDS011;23341;50.296;18.960;2024-02-28T11:15:36;190.27;;;97.43;;
37485;SDS011;23341;50.296;18.960;2024-02-28T11:18:09;255.48;;;127.28;;
37485;SDS011;23341;50.296;18.960;2024-02-28T11:20:37;190.40;;;104.72;;
37485;SDS011;23341;50.296;18.960;2024-02-28T11:23:05;186.50;;;96.93;;
37485;SDS011;23341;50.296;18.960;2024-02-28T11:25:34;213.48;;;103.57;;
37485;SDS011;23341;50.296;18.960;2024-02-28T11:28:02;182.55;;;94.93;;
37485;SDS011;23341;50.296;18.960;2024-02-28T11:30:30;189.07;;;98.07;;
37485;SDS011;23341;50.296;18.960;2024-02-28T11:32:58;191.75;;;102.95;;
37485;SDS011;23341;50.296;18.960;2024-02-28T11:35:27;172.15;;;93.55;;
37485;SDS011;23341;50.296;18.960;2024-02-28T11:37:55;202.80;;;105.22;;
37485;SDS011;23341;50.296;18.960;2024-02-28T11:40:23;175.77;;;91.47;;
37485;SDS011;23341;50.296;18.960;2024-02-28T11:42:52;178.50;;;94.82;;
37485;SDS011;23341;50.296;18.960;2024-02-28T11:45:20;154.55;;;86.38;;
37485;SDS011;23341;50.296;18.960;2024-02-28T11:47:47;163.05;;;88.05;;
37485;SDS011;23341;50.296;18.960;2024-02-28T11:50:15;162.10;;;87.95;;
37485;SDS011;23341;50.296;18.960;2024-02-28T11:52:46;187.10;;;97.70;;
37485;SDS011;23341;50.296;18.960;2024-02-28T11:55:13;172.07;;;91.97;;
37485;SDS011;23341;50.296;18.960;2024-02-28T11:57:40;161.07;;;88.63;;
37485;SDS011;23341;50.296;18.960;2024-02-28T12:00:08;160.38;;;85.40;;
37485;SDS011;23341;50.296;18.960;2024-02-28T12:05:06;161.85;;;86.68;;
37485;SDS011;23341;50.296;18.960;2024-02-28T12:07:34;186.00;;;99.97;;
37485;SDS011;23341;50.296;18.960;2024-02-28T12:10:05;176.90;;;95.45;;
37485;SDS011;23341;50.296;18.960;2024-02-28T12:12:35;184.52;;;92.85;;
37485;SDS011;23341;50.296;18.960;2024-02-28T12:15:03;182.80;;;92.47;;
37485;SDS011;23341;50.296;18.960;2024-02-28T12:17:32;213.68;;;105.28;;
37485;SDS011;23341;50.296;18.960;2024-02-28T12:20:00;180.63;;;92.80;;
37485;SDS011;23341;50.296;18.960;2024-02-28T12:22:27;189.52;;;95.57;;
37485;SDS011;23341;50.296;18.960;2024-02-28T12:24:55;181.63;;;91.35;;
37485;SDS011;23341;50.296;18.960;2024-02-28T12:27:25;178.40;;;91.72;;
37485;SDS011;23341;50.296;18.960;2024-02-28T12:29:52;169.27;;;89.72;;
37485;SDS011;23341;50.296;18.960;2024-02-28T12:32:20;167.68;;;87.97;;
37485;SDS011;23341;50.296;18.960;2024-02-28T12:34:47;165.38;;;88.32;;
37485;SDS011;23341;50.296;18.960;2024-02-28T12:37:15;181.05;;;92.70;;
37485;SDS011;23341;50.296;18.960;2024-02-28T12:39:43;177.82;;;91.13;;
37485;SDS011;23341;50.296;18.960;2024-02-28T12:42:10;181.95;;;92.55;;
37485;SDS011;23341;50.296;18.960;2024-02-28T12:44:40;155.90;;;83.05;;
37485;SDS011;23341;50.296;18.960;2024-02-28T12:47:11;166.13;;;84.93;;
37485;SDS011;23341;50.296;18.960;2024-02-28T12:49:38;157.95;;;85.88;;
37485;SDS011;23341;50.296;18.960;2024-02-28T12:52:06;150.73;;;82.28;;
37485;SDS011;23341;50.296;18.960;2024-02-28T12:54:33;152.27;;;79.88;;
37485;SDS011;23341;50.296;18.960;2024-02-28T12:57:01;176.70;;;91.70;;
37485;SDS011;23341;50.296;18.960;2024-02-28T12:59:31;152.55;;;82.95;;
37485;SDS011;23341;50.296;18.960;2024-02-28T13:02:01;164.23;;;84.47;;
37485;SDS011;23341;50.296;18.960;2024-02-28T13:04:28;167.32;;;91.47;;
37485;SDS011;23341;50.296;18.960;2024-02-28T13:06:56;160.15;;;88.60;;
37485;SDS011;23341;50.296;18.960;2024-02-28T13:09:23;141.60;;;76.50;;
37485;SDS011;23341;50.296;18.960;2024-02-28T13:11:51;140.15;;;78.68;;
37485;SDS011;23341;50.296;18.960;2024-02-28T13:14:18;149.55;;;83.07;;
37485;SDS011;23341;50.296;18.960;2024-02-28T13:16:46;150.32;;;80.65;;
37485;SDS011;23341;50.296;18.960;2024-02-28T13:19:15;160.70;;;83.13;;
37485;SDS011;23341;50.296;18.960;2024-02-28T13:21:43;164.63;;;84.90;;
37485;SDS011;23341;50.296;18.960;2024-02-28T13:24:11;151.45;;;79.85;;
37485;SDS011;23341;50.296;18.960;2024-02-28T13:29:08;151.52;;;78.45;;
37485;SDS011;23341;50.296;18.960;2024-02-28T13:31:36;146.18;;;82.95;;
37485;SDS011;23341;50.296;18.960;2024-02-28T13:34:03;139.43;;;76.78;;
37485;SDS011;23341;50.296;18.960;2024-02-28T13:36:32;147.20;;;75.63;;
37485;SDS011;23341;50.296;18.960;2024-02-28T13:39:02;139.50;;;76.50;;
37485;SDS011;23341;50.296;18.960;2024-02-28T13:41:30;164.45;;;89.72;;
37485;SDS011;23341;50.296;18.960;2024-02-28T13:43:57;132.57;;;71.78;;
37485;SDS011;23341;50.296;18.960;2024-02-28T13:46:24;136.98;;;75.57;;
37485;SDS011;23341;50.296;18.960;2024-02-28T13:48:52;144.98;;;76.85;;
37485;SDS011;23341;50.296;18.960;2024-02-28T13:51:20;137.73;;;75.60;;
37485;SDS011;23341;50.296;18.960;2024-02-28T13:53:49;148.43;;;80.30;;
37485;SDS011;23341;50.296;18.960;2024-02-28T13:56:19;148.02;;;79.97;;
37485;SDS011;23341;50.296;18.960;2024-02-28T13:58:47;168.52;;;88.07;;
37485;SDS011;23341;50.296;18.960;2024-02-28T14:01:15;150.30;;;75.50;;
37485;SDS011;23341;50.296;18.960;2024-02-28T14:03:44;149.15;;;78.05;;
37485;SDS011;23341;50.296;18.960;2024-02-28T14:06:12;142.50;;;73.47;;
37485;SDS011;23341;50.296;18.960;2024-02-28T14:08:40;143.20;;;76.65;;
37485;SDS011;23341;50.296;18.960;2024-02-28T14:11:09;154.65;;;84.90;;
37485;SDS011;23341;50.296;18.960;2024-02-28T14:13:36;167.93;;;88.45;;